createdAt,value
2023-04-18T00:00:32.221Z,101123.99
2023-04-18T00:03:15.903Z,101123.40
2023-04-18T00:05:47.488Z,101122.78
2023-04-18T00:08:15.286Z,101124.58
2023-04-18T00:10:42.908Z,101123.23
2023-04-18T00:13:10.610Z,101122.81
2023-04-18T00:15:38.209Z,101121.31
2023-04-18T00:18:06.216Z,101122.63
2023-04-18T00:20:34.205Z,101120.45
2023-04-18T00:23:01.778Z,101117.41
2023-04-18T00:25:29.508Z,101119.13
2023-04-18T00:27:57.981Z,101121.55
2023-04-18T00:30:26.995Z,101121.55
2023-04-18T00:32:54.732Z,101120.13
2023-04-18T00:35:22.481Z,101123.92
2023-04-18T00:37:50.147Z,101124.76
2023-04-18T00:40:17.891Z,101119.60
2023-04-18T00:42:45.484Z,101121.45
2023-04-18T00:45:15.035Z,101116.01
2023-04-18T00:47:42.920Z,101115.09
2023-04-18T00:50:11.165Z,101117.63
2023-04-18T00:52:38.924Z,101117.07
2023-04-18T00:55:08.074Z,101115.96
2023-04-18T00:57:36.430Z,101117.60
2023-04-18T01:00:10.355Z,101119.83
2023-04-18T01:02:39.889Z,101116.74
2023-04-18T01:05:08.767Z,101120.98
2023-04-18T01:07:40.709Z,101121.84
2023-04-18T01:10:10.246Z,101120.45
2023-04-18T01:12:38.188Z,101118.42
2023-04-18T01:15:06.489Z,101123.65
2023-04-18T01:17:35.826Z,101125.52
2023-04-18T01:20:06.291Z,101122.70
2023-04-18T01:22:34.184Z,101124.67
2023-04-18T01:25:06.301Z,101124.83
2023-04-18T01:27:33.912Z,101120.88
2023-04-18T01:30:01.667Z,101120.32
2023-04-18T01:32:30.771Z,101124.98
2023-04-18T01:34:58.402Z,101127.83
2023-04-18T01:37:27.501Z,101124.55
2023-04-18T01:39:55.374Z,101130.34
2023-04-18T01:42:23.108Z,101128.67
2023-04-18T01:44:50.690Z,101129.23
2023-04-18T01:47:18.475Z,101129.35
2023-04-18T01:49:48.181Z,101127.91
2023-04-18T01:52:17.283Z,101128.85
2023-04-18T01:54:44.780Z,101129.67
2023-04-18T01:57:13.396Z,101128.33
2023-04-18T01:59:41.184Z,101127.59
2023-04-18T02:02:08.935Z,101124.20
2023-04-18T02:04:36.902Z,101127.66
2023-04-18T02:07:04.963Z,101127.60
2023-04-18T02:09:32.826Z,101122.68
2023-04-18T02:12:02.441Z,101121.66
2023-04-18T02:14:31.156Z,101122.42
2023-04-18T02:17:01.406Z,101124.43
2023-04-18T02:19:29.727Z,101124.57
2023-04-18T02:21:57.415Z,101120.38
2023-04-18T02:24:25.075Z,101121.17
2023-04-18T02:26:52.763Z,101118.27
2023-04-18T02:29:20.609Z,101118.91
2023-04-18T02:31:48.268Z,101119.78
2023-04-18T02:34:16.337Z,101114.56
2023-04-18T02:36:44.175Z,101115.42
2023-04-18T02:39:11.984Z,101112.06
2023-04-18T02:41:39.706Z,101117.83
2023-04-18T02:44:08.455Z,101112.34
2023-04-18T02:46:38.539Z,101113.21
2023-04-18T02:49:08.765Z,101114.41
2023-04-18T02:51:36.478Z,101112.77
2023-04-18T02:54:04.080Z,101109.39
2023-04-18T02:56:40.244Z,101111.21
2023-04-18T02:59:19.258Z,101113.69
2023-04-18T03:02:10.337Z,101109.92
2023-04-18T03:04:41.102Z,101108.63
2023-04-18T03:07:10.317Z,101106.43
2023-04-18T03:09:39.220Z,101110.15
2023-04-18T03:12:15.409Z,101117.03
2023-04-18T03:14:44.538Z,101119.98
2023-04-18T03:17:13.151Z,101116.10
2023-04-18T03:19:42.472Z,101114.98
2023-04-18T03:22:12.648Z,101117.66
2023-04-18T03:24:45.979Z,101121.55
2023-04-18T03:27:14.580Z,101121.33
2023-04-18T03:29:43.220Z,101120.72
2023-04-18T03:32:11.346Z,101122.20
2023-04-18T03:34:38.995Z,101122.42
2023-04-18T03:37:08.423Z,101124.73
2023-04-18T03:39:40.392Z,101127.40
2023-04-18T03:42:08.664Z,101126.17
2023-04-18T03:44:36.713Z,101127.20
2023-04-18T03:47:04.599Z,101127.40
2023-04-18T03:49:32.907Z,101125.42
2023-04-18T03:52:00.698Z,101126.20
2023-04-18T03:54:28.587Z,101127.70
2023-04-18T03:56:57.591Z,101126.30
2023-04-18T03:59:26.377Z,101129.77
2023-04-18T04:01:54.271Z,101125.37
2023-04-18T04:04:22.906Z,101123.85
2023-04-18T04:06:51.314Z,101126.58
2023-04-18T04:09:19.084Z,101129.14
2023-04-18T04:11:46.969Z,101133.60
2023-04-18T04:14:15.385Z,101134.41
2023-04-18T04:16:45.906Z,101138.52
2023-04-18T04:19:15.955Z,101138.56
2023-04-18T04:21:53.183Z,101137.16
2023-04-18T04:24:22.705Z,101138.80
2023-04-18T04:26:51.355Z,101139.16
2023-04-18T04:29:21.591Z,101140.86
2023-04-18T04:31:49.697Z,101147.60
2023-04-18T04:34:25.009Z,101145.79
2023-04-18T04:36:54.024Z,101144.90
2023-04-18T04:39:23.874Z,101147.73
2023-04-18T04:42:07.584Z,101149.63
2023-04-18T04:44:42.691Z,101153.91
2023-04-18T04:47:10.769Z,101153.26
2023-04-18T04:49:39.524Z,101155.92
2023-04-18T04:52:07.143Z,101154.37
2023-04-18T04:54:35.433Z,101160.85
2023-04-18T04:57:05.340Z,101156.90
2023-04-18T04:59:33.307Z,101160.12
2023-04-18T05:02:02.050Z,101160.14
2023-04-18T05:04:34.209Z,101162.46
2023-04-18T05:07:02.189Z,101161.83
2023-04-18T05:09:29.905Z,101162.73
2023-04-18T05:11:57.538Z,101160.82
2023-04-18T05:14:26.324Z,101161.35
2023-04-18T05:16:55.243Z,101157.86
2023-04-18T05:19:23.079Z,101156.62
2023-04-18T05:21:50.931Z,101157.21
2023-04-18T05:24:18.886Z,101158.88
2023-04-18T05:26:46.603Z,101157.05
2023-04-18T05:29:14.309Z,101157.38
2023-04-18T05:31:42.616Z,101159.67
2023-04-18T05:34:10.487Z,101160.36
2023-04-18T05:36:38.128Z,101160.07
2023-04-18T05:39:05.778Z,101163.89
2023-04-18T05:41:33.406Z,101160.18
2023-04-18T05:44:05.797Z,101152.79
2023-04-18T05:46:33.886Z,101154.94
2023-04-18T05:49:07.025Z,101157.19
2023-04-18T05:51:41.962Z,101154.19
2023-04-18T05:54:09.806Z,101157.00
2023-04-18T05:56:37.768Z,101157.77
2023-04-18T05:59:05.652Z,101151.99
2023-04-18T06:01:44.466Z,101157.02
2023-04-18T06:04:15.636Z,101155.34
2023-04-18T06:06:48.188Z,101155.80
2023-04-18T06:09:15.916Z,101155.27
2023-04-18T06:11:43.500Z,101156.89
2023-04-18T06:14:11.543Z,101158.92
2023-04-18T06:16:39.616Z,101156.48
2023-04-18T06:19:07.484Z,101155.17
2023-04-18T06:21:35.160Z,101153.91
2023-04-18T06:24:02.806Z,101149.94
2023-04-18T06:26:31.882Z,101150.39
2023-04-18T06:28:59.533Z,101153.87
2023-04-18T06:31:27.210Z,101153.58
2023-04-18T06:33:54.826Z,101153.73
2023-04-18T06:36:22.679Z,101153.23
2023-04-18T06:38:50.403Z,101158.27
2023-04-18T06:41:18.276Z,101158.58
2023-04-18T06:43:59.812Z,101158.89
2023-04-18T06:46:30.463Z,101163.17
2023-04-18T06:48:58.389Z,101168.52
2023-04-18T06:51:26.740Z,101161.52
2023-04-18T06:53:54.315Z,101166.12
2023-04-18T06:56:22.415Z,101166.77
2023-04-18T06:58:50.061Z,101169.51
2023-04-18T07:01:22.279Z,101169.83
2023-04-18T07:03:50.419Z,101171.17
2023-04-18T07:06:19.890Z,101172.96
2023-04-18T07:08:47.641Z,101170.47
2023-04-18T07:11:18.267Z,101171.09
2023-04-18T07:13:48.180Z,101170.41
2023-04-18T07:16:15.927Z,101175.23
2023-04-18T07:18:43.550Z,101176.20
2023-04-18T07:21:11.239Z,101179.08
2023-04-18T07:23:38.829Z,101182.56
2023-04-18T07:26:06.558Z,101183.88
2023-04-18T07:28:34.323Z,101184.26
2023-04-18T07:31:03.550Z,101188.41
2023-04-18T07:33:33.538Z,101191.95
2023-04-18T07:36:01.605Z,101192.01
2023-04-18T07:38:29.228Z,101189.52
2023-04-18T07:41:00.997Z,101191.77
2023-04-18T07:43:28.639Z,101194.18
2023-04-18T07:45:56.378Z,101192.39
2023-04-18T07:48:25.201Z,101195.73
2023-04-18T07:50:53.257Z,101192.23
2023-04-18T07:53:21.077Z,101192.17
2023-04-18T07:55:49.923Z,101190.30
2023-04-18T07:58:17.617Z,101193.13
2023-04-18T08:00:45.251Z,101194.23
2023-04-18T08:03:13.719Z,101194.16
2023-04-18T08:05:42.791Z,101193.96
2023-04-18T08:08:11.563Z,101193.84
2023-04-18T08:10:39.334Z,101192.83
2023-04-18T08:13:07.056Z,101192.48
2023-04-18T08:15:34.709Z,101191.04
2023-04-18T08:18:02.903Z,101186.45
2023-04-18T08:20:30.727Z,101192.17
2023-04-18T08:23:07.972Z,101187.09
2023-04-18T08:25:37.492Z,101188.04
2023-04-18T08:28:05.277Z,101189.52
2023-04-18T08:30:32.898Z,101186.36
2023-04-18T08:33:00.965Z,101188.25
2023-04-18T08:35:28.690Z,101187.47
2023-04-18T08:37:56.536Z,101183.52
2023-04-18T08:40:25.464Z,101187.01
2023-04-18T08:42:53.805Z,101179.38
2023-04-18T08:45:21.525Z,101186.48
2023-04-18T08:47:49.253Z,101185.96
2023-04-18T08:50:17.132Z,101190.88
2023-04-18T08:52:45.745Z,101190.11
2023-04-18T08:55:13.442Z,101189.90
2023-04-18T08:57:41.128Z,101189.64
2023-04-18T09:00:11.289Z,101193.41
2023-04-18T09:02:42.790Z,101190.02
2023-04-18T09:05:16.238Z,101186.77
2023-04-18T09:07:43.956Z,101191.97
2023-04-18T09:10:12.475Z,101189.41
2023-04-18T09:12:42.319Z,101182.48
2023-04-18T09:15:12.227Z,101181.81
2023-04-18T09:17:45.491Z,101178.85
2023-04-18T09:20:15.523Z,101182.80
2023-04-18T09:22:46.087Z,101179.88
2023-04-18T09:25:29.650Z,101178.83
2023-04-18T09:28:00.567Z,101183.24
2023-04-18T09:30:32.706Z,101179.84
2023-04-18T09:33:01.320Z,101184.54
2023-04-18T09:35:29.073Z,101179.10
2023-04-18T09:37:56.880Z,101183.40
2023-04-18T09:40:24.883Z,101179.44
2023-04-18T09:42:56.332Z,101171.86
2023-04-18T09:45:24.758Z,101177.54
2023-04-18T09:47:53.138Z,101178.89
2023-04-18T09:50:20.908Z,101184.98
2023-04-18T09:52:48.686Z,101175.94
2023-04-18T09:55:18.289Z,101175.38
2023-04-18T09:57:47.509Z,101164.83
2023-04-18T10:00:20.249Z,101165.86
2023-04-18T10:02:50.384Z,101154.65
2023-04-18T10:05:20.947Z,101158.52
2023-04-18T10:07:53.165Z,101170.11
2023-04-18T10:10:24.854Z,101154.07
2023-04-18T10:13:00.306Z,101161.37
2023-04-18T10:15:28.786Z,101153.84
2023-04-18T10:18:05.629Z,101148.30
2023-04-18T10:20:35.253Z,101144.16
2023-04-18T10:23:19.136Z,101140.85
2023-04-18T10:25:47.323Z,101145.66
2023-04-18T10:28:15.521Z,101131.34
2023-04-18T10:30:44.292Z,101117.23
2023-04-18T10:33:31.901Z,101132.67
2023-04-18T10:36:01.438Z,101116.29
2023-04-18T10:38:29.136Z,101104.20
2023-04-18T10:41:12.720Z,101103.39
2023-04-18T10:43:56.270Z,101110.82
2023-04-18T10:46:31.719Z,101118.22
2023-04-18T10:49:16.896Z,101091.79
2023-04-18T10:51:46.498Z,101107.45
2023-04-18T10:54:40.572Z,101092.37
2023-04-18T10:57:10.205Z,101091.20
2023-04-18T10:59:38.869Z,101106.85
2023-04-18T11:02:12.752Z,101083.13
2023-04-18T11:04:41.149Z,101081.44
2023-04-18T11:07:08.838Z,101095.52
2023-04-18T11:09:38.543Z,101097.39
2023-04-18T11:12:10.478Z,101094.58
2023-04-18T11:14:41.266Z,101089.42
2023-04-18T11:17:40.015Z,101072.41
2023-04-18T11:20:15.842Z,101076.86
2023-04-18T11:22:47.814Z,101073.21
2023-04-18T11:25:20.182Z,101057.50
2023-04-18T11:27:51.487Z,101067.30
2023-04-18T11:30:20.525Z,101053.11
2023-04-18T11:32:48.536Z,101061.05
2023-04-18T11:35:16.483Z,101049.70
2023-04-18T11:37:49.970Z,101028.48
2023-04-18T11:40:18.114Z,101030.71
2023-04-18T11:42:45.983Z,101029.07
2023-04-18T11:45:15.037Z,101034.90
2023-04-18T11:47:43.498Z,101040.90
2023-04-18T11:50:12.798Z,101038.94
2023-04-18T11:52:41.363Z,101042.44
2023-04-18T11:55:13.673Z,101040.83
2023-04-18T11:57:41.862Z,101040.14
2023-04-18T12:00:12.053Z,101023.70
2023-04-18T12:02:39.748Z,101012.29
2023-04-18T12:05:08.344Z,101011.67
2023-04-18T12:07:40.387Z,101015.26
2023-04-18T12:10:28.414Z,101004.73
2023-04-18T12:13:00.003Z,101002.54
2023-04-18T12:15:28.696Z,100985.55
2023-04-18T12:18:00.868Z,100978.70
2023-04-18T12:20:46.060Z,100967.95
2023-04-18T12:23:30.687Z,100978.08
2023-04-18T12:26:03.778Z,100976.52
2023-04-18T12:28:31.942Z,100975.48
2023-04-18T12:30:59.723Z,100962.61
2023-04-18T12:33:27.749Z,100972.90
2023-04-18T12:35:55.957Z,100960.30
2023-04-18T12:38:23.837Z,100959.73
2023-04-18T12:40:52.155Z,100958.02
2023-04-18T12:43:19.796Z,100950.96
2023-04-18T12:45:47.488Z,100937.11
2023-04-18T12:48:19.353Z,100943.88
2023-04-18T12:50:47.211Z,100929.91
2023-04-18T12:53:14.813Z,100932.77
2023-04-18T12:55:42.503Z,100928.46
2023-04-18T12:58:10.201Z,100927.54
2023-04-18T13:00:37.853Z,100921.58
2023-04-18T13:03:05.764Z,100916.86
2023-04-18T13:05:34.360Z,100908.00
2023-04-18T13:08:15.148Z,100898.20
2023-04-18T13:10:43.760Z,100888.15
2023-04-18T13:13:11.563Z,100882.85
2023-04-18T13:15:39.444Z,100893.58
2023-04-18T13:18:12.115Z,100893.23
2023-04-18T13:20:42.175Z,100879.77
2023-04-18T13:23:09.800Z,100878.67
2023-04-18T13:25:37.471Z,100886.45
2023-04-18T13:28:05.552Z,100894.02
2023-04-18T13:30:36.731Z,100892.27
2023-04-18T13:33:04.446Z,100891.29
2023-04-18T13:35:32.159Z,100889.05
2023-04-18T13:37:59.898Z,100886.18
2023-04-18T13:40:27.559Z,100883.13
2023-04-18T13:42:55.206Z,100878.29
2023-04-18T13:45:22.974Z,100870.96
2023-04-18T13:47:50.888Z,100864.88
2023-04-18T13:50:18.906Z,100865.71
2023-04-18T13:52:48.626Z,100858.04
2023-04-18T13:55:16.405Z,100846.58
2023-04-18T13:57:44.088Z,100826.80
2023-04-18T14:00:14.065Z,100807.61
2023-04-18T14:02:42.091Z,100796.21
2023-04-18T14:05:10.585Z,100794.05
2023-04-18T14:07:38.512Z,100812.92
2023-04-18T14:10:06.857Z,100827.33
2023-04-18T14:12:34.596Z,100830.48
2023-04-18T14:15:02.347Z,100834.23
2023-04-18T14:17:30.991Z,100833.81
2023-04-18T14:19:58.654Z,100839.48
2023-04-18T14:22:26.934Z,100849.60
2023-04-18T14:24:56.130Z,100855.51
2023-04-18T14:27:25.947Z,100854.23
2023-04-18T14:29:53.611Z,100857.02
2023-04-18T14:32:21.244Z,100857.92
2023-04-18T14:34:48.931Z,100860.02
2023-04-18T14:37:17.743Z,100862.16
2023-04-18T14:39:46.101Z,100862.88
2023-04-18T14:42:13.735Z,100857.50
2023-04-18T14:44:41.402Z,100850.36
2023-04-18T14:47:09.450Z,100846.30
2023-04-18T14:49:37.230Z,100836.63
2023-04-18T14:52:05.026Z,100829.44
2023-04-18T14:54:32.943Z,100833.20
2023-04-18T14:57:01.366Z,100825.27
2023-04-18T14:59:29.038Z,100817.61
2023-04-18T15:01:56.783Z,100809.95
2023-04-18T15:04:24.670Z,100798.23
2023-04-18T15:06:52.484Z,100804.13
2023-04-18T15:09:20.841Z,100801.13
2023-04-18T15:11:48.492Z,100806.05
2023-04-18T15:14:16.641Z,100810.73
2023-04-18T15:16:44.624Z,100817.86
2023-04-18T15:19:12.330Z,100822.78
2023-04-18T15:21:40.035Z,100829.69
2023-04-18T15:24:08.118Z,100835.91
2023-04-18T15:26:36.208Z,100841.17
2023-04-18T15:29:03.972Z,100853.45
2023-04-18T15:31:32.385Z,100856.29
2023-04-18T15:34:00.210Z,100859.30
2023-04-18T15:36:28.690Z,100861.91
2023-04-18T15:38:56.311Z,100858.98
2023-04-18T15:41:23.984Z,100856.24
2023-04-18T15:43:52.392Z,100848.87
2023-04-18T15:46:20.270Z,100835.78
2023-04-18T15:48:48.350Z,100833.38
2023-04-18T15:51:16.050Z,100839.80
2023-04-18T15:53:43.867Z,100850.27
2023-04-18T15:56:11.897Z,100855.16
2023-04-18T15:58:39.604Z,100867.55
2023-04-18T16:01:07.699Z,100874.45
2023-04-18T16:03:36.102Z,100879.95
2023-04-18T16:06:04.575Z,100879.09
2023-04-18T16:08:33.468Z,100884.64
2023-04-18T16:11:01.249Z,100895.77
2023-04-18T16:13:28.890Z,100904.29
2023-04-18T16:15:56.623Z,100908.59
2023-04-18T16:18:24.420Z,100904.41
2023-04-18T16:20:52.068Z,100908.13
2023-04-18T16:23:20.472Z,100914.31
2023-04-18T16:25:48.475Z,100920.54
2023-04-18T16:28:16.161Z,100921.70
2023-04-18T16:30:45.615Z,100924.05
2023-04-18T16:33:13.557Z,100926.05
2023-04-18T16:35:41.622Z,100928.67
2023-04-18T16:38:09.220Z,100932.04
2023-04-18T16:40:37.889Z,100929.00
2023-04-18T16:43:05.586Z,100931.89
2023-04-18T16:45:33.299Z,100935.97
2023-04-18T16:48:01.064Z,100941.45
2023-04-18T16:50:28.832Z,100949.22
2023-04-18T16:52:56.496Z,100954.80
2023-04-18T16:55:24.203Z,100955.05
2023-04-18T16:57:51.813Z,100964.92
2023-04-18T17:00:19.484Z,100970.53
2023-04-18T17:02:48.193Z,100978.19
2023-04-18T17:05:16.016Z,100978.68
2023-04-18T17:07:44.925Z,100984.58
2023-04-18T17:10:12.625Z,100990.20
2023-04-18T17:12:40.481Z,100992.24
2023-04-18T17:15:08.176Z,100991.36
2023-04-18T17:17:35.889Z,100996.77
2023-04-18T17:20:06.994Z,100995.77
2023-04-18T17:22:34.825Z,101001.25
2023-04-18T17:25:03.010Z,101005.92
2023-04-18T17:27:30.674Z,101008.41
2023-04-18T17:29:58.263Z,101010.40
2023-04-18T17:32:25.980Z,101012.61
2023-04-18T17:34:54.020Z,101014.48
2023-04-18T17:37:22.378Z,101019.46
2023-04-18T17:39:50.572Z,101018.64
2023-04-18T17:42:19.565Z,101017.35
2023-04-18T17:44:47.297Z,101022.84
2023-04-18T17:47:15.244Z,101030.56
2023-04-18T17:49:42.928Z,101034.70
2023-04-18T17:52:10.612Z,101033.61
2023-04-18T17:54:38.628Z,101036.09
2023-04-18T17:57:06.265Z,101040.73
2023-04-18T17:59:37.518Z,101036.60
2023-04-18T18:02:05.745Z,101041.37
2023-04-18T18:04:33.862Z,101044.89
2023-04-18T18:07:01.677Z,101045.27
2023-04-18T18:09:29.419Z,101047.23
2023-04-18T18:11:58.495Z,101045.77
2023-04-18T18:14:26.777Z,101053.82
2023-04-18T18:16:54.661Z,101051.53
2023-04-18T18:19:22.335Z,101061.45
2023-04-18T18:21:50.517Z,101056.77
2023-04-18T18:24:18.675Z,101061.76
2023-04-18T18:26:46.775Z,101055.25
2023-04-18T18:29:14.780Z,101053.73
2023-04-18T18:31:42.819Z,101057.55
2023-04-18T18:34:10.845Z,101057.18
2023-04-18T18:36:38.606Z,101057.89
2023-04-18T18:39:06.829Z,101064.59
2023-04-18T18:41:35.048Z,101063.98
2023-04-18T18:44:02.956Z,101059.12
2023-04-18T18:46:31.157Z,101059.38
2023-04-18T18:48:59.003Z,101061.23
2023-04-18T18:51:27.010Z,101061.34
2023-04-18T18:53:56.651Z,101063.12
2023-04-18T18:56:24.618Z,101061.39
2023-04-18T18:58:54.448Z,101064.73
2023-04-18T19:01:22.893Z,101059.45
2023-04-18T19:03:50.934Z,101062.36
2023-04-18T19:06:18.823Z,101056.95
2023-04-18T19:08:46.507Z,101055.58
2023-04-18T19:11:15.925Z,101054.23
2023-04-18T19:13:43.546Z,101046.47
2023-04-18T19:16:11.597Z,101043.71
2023-04-18T19:18:40.547Z,101049.98
2023-04-18T19:21:08.416Z,101047.16
2023-04-18T19:23:36.207Z,101045.58
2023-04-18T19:26:03.963Z,101037.68
2023-04-18T19:28:31.732Z,101042.06
2023-04-18T19:30:59.398Z,101039.59
2023-04-18T19:33:27.877Z,101039.65
2023-04-18T19:35:55.836Z,101033.80
2023-04-18T19:38:23.516Z,101026.42
2023-04-18T19:40:51.201Z,101029.30
2023-04-18T19:43:18.838Z,101024.07
2023-04-18T19:45:46.513Z,101021.67
2023-04-18T19:48:14.201Z,101020.14
2023-04-18T19:50:42.317Z,101015.66
2023-04-18T19:53:10.999Z,101015.25
2023-04-18T19:55:38.973Z,101013.02
2023-04-18T19:58:06.880Z,101014.23
2023-04-18T20:00:34.481Z,101003.77
2023-04-18T20:03:02.255Z,101007.78
2023-04-18T20:05:30.203Z,101002.58
2023-04-18T20:07:58.018Z,101002.64
2023-04-18T20:10:25.796Z,101000.08
2023-04-18T20:12:53.447Z,100999.08
2023-04-18T20:15:22.567Z,100995.06
2023-04-18T20:17:50.464Z,100991.73
2023-04-18T20:20:18.275Z,100984.88
2023-04-18T20:22:47.468Z,100984.83
2023-04-18T20:25:15.166Z,100981.77
2023-04-18T20:27:42.868Z,100976.56
2023-04-18T20:30:10.978Z,100975.88
2023-04-18T20:32:38.706Z,100975.80
2023-04-18T20:35:07.341Z,100977.13
2023-04-18T20:37:36.424Z,100972.40
2023-04-18T20:40:05.233Z,100978.56
2023-04-18T20:42:32.978Z,100974.52
2023-04-18T20:45:00.634Z,100975.98
2023-04-18T20:47:28.353Z,100972.92
2023-04-18T20:50:00.104Z,100973.87
2023-04-18T20:52:28.068Z,100967.45
2023-04-18T20:54:55.989Z,100970.67
2023-04-18T20:57:23.602Z,100961.63
2023-04-18T20:59:51.474Z,100963.31
2023-04-18T21:02:19.154Z,100963.84
2023-04-18T21:04:46.959Z,100961.20
2023-04-18T21:07:14.613Z,100956.08
2023-04-18T21:09:42.285Z,100956.11
2023-04-18T21:12:09.965Z,100956.46
2023-04-18T21:14:37.576Z,100947.19
2023-04-18T21:17:05.438Z,100945.08
2023-04-18T21:19:33.025Z,100948.35
2023-04-18T21:22:00.785Z,100946.89
2023-04-18T21:24:28.423Z,100953.10
2023-04-18T21:26:56.010Z,100942.30
2023-04-18T21:29:23.820Z,100941.41
2023-04-18T21:31:51.782Z,100935.46
2023-04-18T21:34:20.159Z,100934.30
2023-04-18T21:36:47.812Z,100935.15
2023-04-18T21:39:15.457Z,100925.14
2023-04-18T21:41:44.500Z,100934.42
2023-04-18T21:44:12.084Z,100927.00
2023-04-18T21:46:39.784Z,100920.77
2023-04-18T21:49:07.865Z,100918.34
2023-04-18T21:51:35.514Z,100917.27
2023-04-18T21:54:03.414Z,100914.23
2023-04-18T21:56:31.161Z,100914.55
2023-04-18T21:58:58.813Z,100911.23
2023-04-18T22:01:26.533Z,100910.77
2023-04-18T22:03:54.363Z,100902.63
2023-04-18T22:06:23.193Z,100904.77
2023-04-18T22:08:51.531Z,100901.11
2023-04-18T22:11:19.306Z,100899.40
2023-04-18T22:13:47.261Z,100895.64
2023-04-18T22:16:15.239Z,100891.58
2023-04-18T22:18:42.947Z,100886.10
2023-04-18T22:21:10.582Z,100889.84
2023-04-18T22:23:38.228Z,100890.42
2023-04-18T22:26:05.902Z,100888.39
2023-04-18T22:28:33.856Z,100889.94
2023-04-18T22:31:01.559Z,100889.46
2023-04-18T22:33:29.347Z,100886.45
2023-04-18T22:35:57.069Z,100883.11
2023-04-18T22:38:25.098Z,100883.45
2023-04-18T22:40:52.891Z,100880.27
2023-04-18T22:43:23.519Z,100880.39
2023-04-18T22:45:51.510Z,100877.80
2023-04-18T22:48:19.361Z,100871.41
2023-04-18T22:50:47.264Z,100871.14
2023-04-18T22:53:15.941Z,100869.43
2023-04-18T22:55:44.208Z,100862.61
2023-04-18T22:58:12.585Z,100858.28
2023-04-18T23:00:40.446Z,100857.93
2023-04-18T23:03:08.259Z,100855.52
2023-04-18T23:05:36.187Z,100854.78
2023-04-18T23:08:04.457Z,100845.98
2023-04-18T23:10:32.268Z,100840.04
2023-04-18T23:13:00.397Z,100840.09
2023-04-18T23:15:28.090Z,100839.05
2023-04-18T23:17:55.833Z,100825.10
2023-04-18T23:20:24.033Z,100827.72
2023-04-18T23:22:52.688Z,100824.02
2023-04-18T23:25:20.705Z,100819.52
2023-04-18T23:27:48.337Z,100820.13
2023-04-18T23:30:16.188Z,100826.40
2023-04-18T23:32:43.863Z,100822.14
2023-04-18T23:35:11.583Z,100822.40
2023-04-18T23:37:39.421Z,100821.05
2023-04-18T23:40:07.971Z,100817.66
2023-04-18T23:42:35.944Z,100814.11
2023-04-18T23:45:04.420Z,100810.79
2023-04-18T23:47:32.149Z,100812.11
2023-04-18T23:49:59.954Z,100811.96
2023-04-18T23:52:28.019Z,100811.84
2023-04-18T23:54:58.786Z,100807.30
2023-04-18T23:57:26.535Z,100803.81
2023-04-18T23:59:54.217Z,100797.63
